UNTT/TOF METAR and TAF weather

Enter ICAO airport designator
Station Type Date Time Source
UNTT METAR 2024/02/26 16:30 UTC NOAA

UNTT 261630Z 09002MPS CAVOK M18/M21 Q1035 R03/450150 NOSIG RMK QFE759


Station Type Date Time Source
UNTT Decoded METAR 2024/02/26 16:30 UTC NOAA

Station name not available
Feb 26, 2024 - 11:30 AM EST / 2024.02.26 1630 UTC
Wind: from the E (090 degrees) at 4 MPH (4 KT):0
Visibility: greater than 7 mile(s):0
Temperature: 0 F (-18 C)
Dew Point: -5 F (-21 C)
Relative Humidity: 77%
Pressure (altimeter): 30.56 in. Hg (1035 hPa)
ob: UNTT 261630Z 09002MPS CAVOK M18/M21 Q1035 R03/450150 NOSIG RMK QFE759
cycle: 16

Station Type Date Time Source
UNTT TAF UTC NOAA

Error!

Example: see airport list